ROYN/OGN METAR and TAF weather

Enter ICAO airport designator
Station Type Date Time Source
ROYN METAR 2019/10/21 02:00 UTC NOAA

ROYN 210200Z AUTO 36021KT 9999 FEW027 26/19 Q1014


Station Type Date Time Source
ROYN Decoded METAR 2019/10/21 02:00 UTC NOAA

Yonaguni Airport, Japan (ROYN) 24-28N 122-59E 19M
Oct 20, 2019 - 10:00 PM EDT / 2019.10.21 0200 UTC
Wind: from the N (360 degrees) at 24 MPH (21 KT):0
Visibility: greater than 7 mile(s):0
Sky conditions: mostly clear
Temperature: 78 F (26 C)
Dew Point: 66 F (19 C)
Relative Humidity: 65%
Pressure (altimeter): 29.94 in. Hg (1014 hPa)
ob: ROYN 210200Z AUTO 36021KT 9999 FEW027 26/19 Q1014
cycle: 2

Station Type Date Time Source
ROYN TAF UTC NOAA

Error!

Example: see airport list